sensor_id;sensor_type;location;lat;lon;timestamp;pressure;altitude;pressure_sealevel;temperature;humidity
35443;BME280;21561;55.654;37.592;2023-06-10T00:00:44;99743.03;;;12.71;58.41
35443;BME280;21561;55.654;37.592;2023-06-10T00:03:11;99742.25;;;12.64;58.92
35443;BME280;21561;55.654;37.592;2023-06-10T00:05:39;99744.06;;;12.59;59.11
35443;BME280;21561;55.654;37.592;2023-06-10T00:08:06;99735.41;;;12.57;59.51
35443;BME280;21561;55.654;37.592;2023-06-10T00:10:37;99730.31;;;12.51;59.56
35443;BME280;21561;55.654;37.592;2023-06-10T00:13:06;99737.34;;;12.43;59.90
35443;BME280;21561;55.654;37.592;2023-06-10T00:15:38;99744.34;;;12.37;60.38
35443;BME280;21561;55.654;37.592;2023-06-10T00:18:04;99742.66;;;12.35;60.52
35443;BME280;21561;55.654;37.592;2023-06-10T00:20:32;99746.16;;;12.32;60.49
35443;BME280;21561;55.654;37.592;2023-06-10T00:22:59;99742.72;;;12.30;60.29
35443;BME280;21561;55.654;37.592;2023-06-10T00:25:28;99748.81;;;12.29;60.25
35443;BME280;21561;55.654;37.592;2023-06-10T00:27:55;99751.44;;;12.26;60.65
35443;BME280;21561;55.654;37.592;2023-06-10T00:30:22;99755.00;;;12.19;61.14
35443;BME280;21561;55.654;37.592;2023-06-10T00:32:49;99753.28;;;12.15;61.37
35443;BME280;21561;55.654;37.592;2023-06-10T00:35:16;99756.81;;;12.11;61.26
35443;BME280;21561;55.654;37.592;2023-06-10T00:37:43;99759.41;;;12.12;61.51
35443;BME280;21561;55.654;37.592;2023-06-10T00:40:10;99775.91;;;12.10;61.27
35443;BME280;21561;55.654;37.592;2023-06-10T00:42:37;99772.44;;;12.09;61.29
35443;BME280;21561;55.654;37.592;2023-06-10T00:45:05;99775.03;;;12.08;61.66
35443;BME280;21561;55.654;37.592;2023-06-10T00:47:33;99774.25;;;12.02;61.53
35443;BME280;21561;55.654;37.592;2023-06-10T00:50:02;99780.25;;;12.08;61.75
35443;BME280;21561;55.654;37.592;2023-06-10T00:52:29;99772.44;;;12.08;61.55
35443;BME280;21561;55.654;37.592;2023-06-10T00:54:57;99773.31;;;12.10;60.83
35443;BME280;21561;55.654;37.592;2023-06-10T00:57:26;99780.22;;;12.12;61.34
35443;BME280;21561;55.654;37.592;2023-06-10T00:59:53;99790.63;;;12.09;60.94
35443;BME280;21561;55.654;37.592;2023-06-10T01:02:21;99798.47;;;12.08;61.45
35443;BME280;21561;55.654;37.592;2023-06-10T01:04:47;99800.19;;;12.09;61.40
35443;BME280;21561;55.654;37.592;2023-06-10T01:07:33;99807.06;;;12.13;61.58
35443;BME280;21561;55.654;37.592;2023-06-10T01:10:09;99797.56;;;12.13;61.78
35443;BME280;21561;55.654;37.592;2023-06-10T01:12:43;99807.06;;;12.13;62.04
35443;BME280;21561;55.654;37.592;2023-06-10T01:15:16;99810.50;;;12.15;62.12
35443;BME280;21561;55.654;37.592;2023-06-10T01:17:59;99806.09;;;12.23;61.97
35443;BME280;21561;55.654;37.592;2023-06-10T01:20:27;99812.22;;;12.19;62.16
35443;BME280;21561;55.654;37.592;2023-06-10T01:22:55;99802.59;;;12.26;62.43
35443;BME280;21561;55.654;37.592;2023-06-10T01:25:25;99817.31;;;12.28;62.54
35443;BME280;21561;55.654;37.592;2023-06-10T01:31:10;99817.22;;;12.37;62.89
35443;BME280;21561;55.654;37.592;2023-06-10T01:33:49;99822.41;;;12.37;63.10
35443;BME280;21561;55.654;37.592;2023-06-10T01:36:19;99824.22;;;12.32;62.60
35443;BME280;21561;55.654;37.592;2023-06-10T01:38:49;99824.25;;;12.29;62.44
35443;BME280;21561;55.654;37.592;2023-06-10T01:41:18;99821.69;;;12.25;62.82
35443;BME280;21561;55.654;37.592;2023-06-10T01:43:45;99819.13;;;12.20;63.03
35443;BME280;21561;55.654;37.592;2023-06-10T01:46:13;99817.47;;;12.16;63.60
35443;BME280;21561;55.654;37.592;2023-06-10T01:48:41;99821.03;;;12.06;63.33
35443;BME280;21561;55.654;37.592;2023-06-10T01:51:08;99819.44;;;11.89;64.03
35443;BME280;21561;55.654;37.592;2023-06-10T01:53:35;99829.06;;;11.78;64.70
35443;BME280;21561;55.654;37.592;2023-06-10T01:56:02;99828.22;;;11.76;64.95
35443;BME280;21561;55.654;37.592;2023-06-10T01:58:29;99836.91;;;11.75;65.31
35443;BME280;21561;55.654;37.592;2023-06-10T02:00:56;99835.19;;;11.74;65.38
35443;BME280;21561;55.654;37.592;2023-06-10T02:03:23;99840.41;;;11.68;65.99
35443;BME280;21561;55.654;37.592;2023-06-10T02:05:50;99840.50;;;11.57;66.32
35443;BME280;21561;55.654;37.592;2023-06-10T02:08:17;99842.28;;;11.53;67.01
35443;BME280;21561;55.654;37.592;2023-06-10T02:10:44;99850.06;;;11.55;67.20
35443;BME280;21561;55.654;37.592;2023-06-10T02:13:11;99850.88;;;11.61;67.31
35443;BME280;21561;55.654;37.592;2023-06-10T02:15:37;99851.72;;;11.65;67.05
35443;BME280;21561;55.654;37.592;2023-06-10T02:18:04;99850.81;;;11.71;67.09
35443;BME280;21561;55.654;37.592;2023-06-10T02:20:31;99854.25;;;11.70;67.15
35443;BME280;21561;55.654;37.592;2023-06-10T02:22:59;99858.59;;;11.72;67.22
35443;BME280;21561;55.654;37.592;2023-06-10T02:25:26;99864.72;;;11.67;67.47
35443;BME280;21561;55.654;37.592;2023-06-10T02:27:53;99862.09;;;11.67;67.76
35443;BME280;21561;55.654;37.592;2023-06-10T02:30:20;99863.81;;;11.68;67.81
35443;BME280;21561;55.654;37.592;2023-06-10T02:32:46;99861.22;;;11.64;67.45
35443;BME280;21561;55.654;37.592;2023-06-10T02:35:14;99855.19;;;11.61;67.36
35443;BME280;21561;55.654;37.592;2023-06-10T02:37:42;99852.63;;;11.59;67.19
35443;BME280;21561;55.654;37.592;2023-06-10T02:40:09;99867.41;;;11.53;67.47
35443;BME280;21561;55.654;37.592;2023-06-10T02:42:37;99863.06;;;11.53;67.47
35443;BME280;21561;55.654;37.592;2023-06-10T02:45:04;99859.59;;;11.53;67.12
35443;BME280;21561;55.654;37.592;2023-06-10T02:47:31;99863.06;;;11.53;67.15
35443;BME280;21561;55.654;37.592;2023-06-10T02:49:58;99866.56;;;11.52;67.48
35443;BME280;21561;55.654;37.592;2023-06-10T02:52:25;99866.50;;;11.58;67.40
35443;BME280;21561;55.654;37.592;2023-06-10T02:54:52;99871.69;;;11.58;67.12
35443;BME280;21561;55.654;37.592;2023-06-10T02:57:18;99868.19;;;11.62;66.71
35443;BME280;21561;55.654;37.592;2023-06-10T02:59:45;99876.78;;;11.74;66.60
35443;BME280;21561;55.654;37.592;2023-06-10T03:02:13;99870.69;;;11.76;65.71
35443;BME280;21561;55.654;37.592;2023-06-10T03:04:40;99873.28;;;11.75;65.95
35443;BME280;21561;55.654;37.592;2023-06-10T03:07:07;99875.03;;;11.76;65.84
35443;BME280;21561;55.654;37.592;2023-06-10T03:09:35;99879.31;;;11.80;65.33
35443;BME280;21561;55.654;37.592;2023-06-10T03:12:01;99878.47;;;11.78;65.34
35443;BME280;21561;55.654;37.592;2023-06-10T03:14:28;99875.03;;;11.74;65.70
35443;BME280;21561;55.654;37.592;2023-06-10T03:16:55;99879.38;;;11.72;65.56
35443;BME280;21561;55.654;37.592;2023-06-10T03:19:22;99878.47;;;11.78;65.77
35443;BME280;21561;55.654;37.592;2023-06-10T03:21:57;99886.19;;;11.87;65.07
35443;BME280;21561;55.654;37.592;2023-06-10T03:24:24;99878.47;;;11.78;64.91
35443;BME280;21561;55.654;37.592;2023-06-10T03:26:51;99888.88;;;11.75;65.24
35443;BME280;21561;55.654;37.592;2023-06-10T03:29:18;99883.69;;;11.75;65.03
35443;BME280;21561;55.654;37.592;2023-06-10T03:31:45;99880.25;;;11.70;64.83
35443;BME280;21561;55.654;37.592;2023-06-10T03:34:12;99892.41;;;11.68;65.28
35443;BME280;21561;55.654;37.592;2023-06-10T03:36:39;99892.41;;;11.68;65.55
35443;BME280;21561;55.654;37.592;2023-06-10T03:39:09;99889.81;;;11.69;65.57
35443;BME280;21561;55.654;37.592;2023-06-10T03:41:36;99888.06;;;11.70;65.24
35443;BME280;21561;55.654;37.592;2023-06-10T03:44:03;99890.66;;;11.70;65.08
35443;BME280;21561;55.654;37.592;2023-06-10T03:46:30;99900.19;;;11.69;65.00
35443;BME280;21561;55.654;37.592;2023-06-10T03:48:57;99900.19;;;11.69;65.54
35443;BME280;21561;55.654;37.592;2023-06-10T03:51:27;99894.16;;;11.69;65.08
35443;BME280;21561;55.654;37.592;2023-06-10T03:53:53;99897.59;;;11.68;64.79
35443;BME280;21561;55.654;37.592;2023-06-10T03:56:20;99897.63;;;11.64;65.15
35443;BME280;21561;55.654;37.592;2023-06-10T03:58:47;99898.50;;;11.65;65.71
35443;BME280;21561;55.654;37.592;2023-06-10T04:01:14;99895.91;;;11.67;65.01
35443;BME280;21561;55.654;37.592;2023-06-10T04:03:41;99904.53;;;11.70;64.77
35443;BME280;21561;55.654;37.592;2023-06-10T04:06:10;99906.25;;;11.73;64.52
35443;BME280;21561;55.654;37.592;2023-06-10T04:08:37;99907.09;;;11.73;64.73
35443;BME280;21561;55.654;37.592;2023-06-10T04:11:04;99912.25;;;11.79;64.79
35443;BME280;21561;55.654;37.592;2023-06-10T04:13:31;99907.91;;;11.83;63.87
35443;BME280;21561;55.654;37.592;2023-06-10T04:15:57;99907.00;;;11.84;64.15
35443;BME280;21561;55.654;37.592;2023-06-10T04:18:24;99916.53;;;11.88;65.11
35443;BME280;21561;55.654;37.592;2023-06-10T04:20:51;99912.16;;;11.95;64.30
35443;BME280;21561;55.654;37.592;2023-06-10T04:23:18;99909.56;;;11.93;63.64
35443;BME280;21561;55.654;37.592;2023-06-10T04:25:45;99907.78;;;11.97;64.17
35443;BME280;21561;55.654;37.592;2023-06-10T04:28:12;99914.72;;;12.02;63.49
35443;BME280;21561;55.654;37.592;2023-06-10T04:30:39;99906.00;;;12.07;63.68
35443;BME280;21561;55.654;37.592;2023-06-10T04:33:05;99909.44;;;12.10;63.05
35443;BME280;21561;55.654;37.592;2023-06-10T04:35:34;99910.25;;;12.17;62.28
35443;BME280;21561;55.654;37.592;2023-06-10T04:38:01;99910.25;;;12.17;61.73
35443;BME280;21561;55.654;37.592;2023-06-10T04:40:29;99917.16;;;12.15;61.96
35443;BME280;21561;55.654;37.592;2023-06-10T04:42:56;99919.72;;;12.21;61.87
35443;BME280;21561;55.654;37.592;2023-06-10T04:45:23;99926.59;;;12.28;61.42
35443;BME280;21561;55.654;37.592;2023-06-10T04:47:50;99917.84;;;12.38;60.81
35443;BME280;21561;55.654;37.592;2023-06-10T04:50:17;99915.28;;;12.34;60.22
35443;BME280;21561;55.654;37.592;2023-06-10T04:52:44;99916.13;;;12.34;60.07
35443;BME280;21561;55.654;37.592;2023-06-10T04:55:11;99929.09;;;12.37;59.79
35443;BME280;21561;55.654;37.592;2023-06-10T04:57:38;99924.81;;;12.33;60.23
35443;BME280;21561;55.654;37.592;2023-06-10T05:00:05;99926.47;;;12.44;60.39
35443;BME280;21561;55.654;37.592;2023-06-10T05:02:32;99925.56;;;12.46;60.00
35443;BME280;21561;55.654;37.592;2023-06-10T05:04:59;99927.22;;;12.52;59.48
35443;BME280;21561;55.654;37.592;2023-06-10T05:07:27;99921.09;;;12.56;58.26
35443;BME280;21561;55.654;37.592;2023-06-10T05:09:53;99922.81;;;12.60;58.50
35443;BME280;21561;55.654;37.592;2023-06-10T05:12:20;99936.66;;;12.65;58.13
35443;BME280;21561;55.654;37.592;2023-06-10T05:14:47;99922.72;;;12.66;57.52
35443;BME280;21561;55.654;37.592;2023-06-10T05:17:14;99935.72;;;12.69;58.15
35443;BME280;21561;55.654;37.592;2023-06-10T05:19:40;99923.56;;;12.70;57.30
35443;BME280;21561;55.654;37.592;2023-06-10T05:22:09;99920.97;;;12.68;56.73
35443;BME280;21561;55.654;37.592;2023-06-10T05:24:36;99914.00;;;12.70;56.90
35443;BME280;21561;55.654;37.592;2023-06-10T05:27:06;99920.94;;;12.71;56.14
35443;BME280;21561;55.654;37.592;2023-06-10T05:29:33;99931.34;;;12.74;56.63
35443;BME280;21561;55.654;37.592;2023-06-10T05:32:00;99929.56;;;12.76;56.42
35443;BME280;21561;55.654;37.592;2023-06-10T05:34:32;99939.06;;;12.80;56.74
35443;BME280;21561;55.654;37.592;2023-06-10T05:36:59;99929.47;;;12.86;55.23
35443;BME280;21561;55.654;37.592;2023-06-10T05:39:26;99932.03;;;12.87;55.34
35443;BME280;21561;55.654;37.592;2023-06-10T05:41:52;99936.28;;;12.96;55.25
35443;BME280;21561;55.654;37.592;2023-06-10T05:44:19;99944.84;;;13.04;55.71
35443;BME280;21561;55.654;37.592;2023-06-10T05:46:46;99934.41;;;13.07;55.30
35443;BME280;21561;55.654;37.592;2023-06-10T05:49:14;99936.03;;;13.14;54.64
35443;BME280;21561;55.654;37.592;2023-06-10T05:51:43;99937.72;;;13.17;55.13
35443;BME280;21561;55.654;37.592;2023-06-10T05:54:10;99938.53;;;13.22;54.50
35443;BME280;21561;55.654;37.592;2023-06-10T05:56:37;99930.72;;;13.24;54.48
35443;BME280;21561;55.654;37.592;2023-06-10T05:59:04;99922.81;;;13.30;53.62
35443;BME280;21561;55.654;37.592;2023-06-10T06:01:31;99909.97;;;13.17;53.09
35443;BME280;21561;55.654;37.592;2023-06-10T06:03:58;99930.97;;;13.05;53.36
35443;BME280;21561;55.654;37.592;2023-06-10T06:06:25;99949.44;;;12.85;53.97
35443;BME280;21561;55.654;37.592;2023-06-10T06:08:52;99953.94;;;12.72;54.49
35443;BME280;21561;55.654;37.592;2023-06-10T06:11:19;99957.31;;;12.77;55.02
35443;BME280;21561;55.654;37.592;2023-06-10T06:13:45;99945.09;;;12.86;54.13
35443;BME280;21561;55.654;37.592;2023-06-10T06:16:18;99964.94;;;12.97;54.67
35443;BME280;21561;55.654;37.592;2023-06-10T06:18:45;99949.06;;;13.16;54.20
35443;BME280;21561;55.654;37.592;2023-06-10T06:21:12;99928.91;;;13.29;52.85
35443;BME280;21561;55.654;37.592;2023-06-10T06:23:39;99924.75;;;13.15;52.21
35443;BME280;21561;55.654;37.592;2023-06-10T06:26:06;99956.16;;;13.03;52.97
35443;BME280;21561;55.654;37.592;2023-06-10T06:28:35;99966.75;;;12.88;53.79
35443;BME280;21561;55.654;37.592;2023-06-10T06:31:01;99969.25;;;12.97;54.12
35443;BME280;21561;55.654;37.592;2023-06-10T06:33:29;99943.03;;;13.12;53.12
35443;BME280;21561;55.654;37.592;2023-06-10T06:35:56;99941.13;;;13.24;53.20
35443;BME280;21561;55.654;37.592;2023-06-10T06:38:23;99953.16;;;13.37;53.21
35443;BME280;21561;55.654;37.592;2023-06-10T06:40:49;99959.88;;;13.53;53.03
35443;BME280;21561;55.654;37.592;2023-06-10T06:43:16;99961.28;;;13.76;52.65
35443;BME280;21561;55.654;37.592;2023-06-10T06:45:45;99944.47;;;13.94;52.17
35443;BME280;21561;55.654;37.592;2023-06-10T06:48:12;99941.56;;;14.14;51.62
35443;BME280;21561;55.654;37.592;2023-06-10T06:50:39;99918.41;;;13.92;50.89
35443;BME280;21561;55.654;37.592;2023-06-10T06:53:08;99952.38;;;13.89;51.61
35443;BME280;21561;55.654;37.592;2023-06-10T06:55:35;99945.25;;;14.01;51.18
35443;BME280;21561;55.654;37.592;2023-06-10T06:58:01;99940.78;;;14.09;50.80
35443;BME280;21561;55.654;37.592;2023-06-10T07:00:31;99945.66;;;14.27;51.02
35443;BME280;21561;55.654;37.592;2023-06-10T07:02:58;99921.91;;;14.43;50.02
35443;BME280;21561;55.654;37.592;2023-06-10T07:05:25;99907.63;;;14.62;49.23
35443;BME280;21561;55.654;37.592;2023-06-10T07:07:54;99900.22;;;14.86;48.67
35443;BME280;21561;55.654;37.592;2023-06-10T07:10:25;99896.28;;;15.05;48.56
35443;BME280;21561;55.654;37.592;2023-06-10T07:12:53;99871.34;;;14.91;47.50
35443;BME280;21561;55.654;37.592;2023-06-10T07:15:20;99882.94;;;14.79;47.53
35443;BME280;21561;55.654;37.592;2023-06-10T07:17:47;99832.59;;;14.25;46.44
35443;BME280;21561;55.654;37.592;2023-06-10T07:20:14;99868.75;;;13.99;46.79
35443;BME280;21561;55.654;37.592;2023-06-10T07:22:42;99893.31;;;13.85;47.74
35443;BME280;21561;55.654;37.592;2023-06-10T07:25:09;99949.13;;;13.75;48.62
35443;BME280;21561;55.654;37.592;2023-06-10T07:27:36;99942.19;;;13.74;47.86
35443;BME280;21561;55.654;37.592;2023-06-10T07:30:05;99966.47;;;13.76;48.68
35443;BME280;21561;55.654;37.592;2023-06-10T07:32:33;99985.47;;;13.87;48.91
35443;BME280;21561;55.654;37.592;2023-06-10T07:35:00;99923.59;;;13.94;47.55
35443;BME280;21561;55.654;37.592;2023-06-10T07:37:29;99939.81;;;14.13;48.16
35443;BME280;21561;55.654;37.592;2023-06-10T07:39:56;99914.28;;;14.32;47.06
35443;BME280;21561;55.654;37.592;2023-06-10T07:42:23;99883.56;;;14.45;46.39
35443;BME280;21561;55.654;37.592;2023-06-10T07:44:50;99879.78;;;14.61;46.19
35443;BME280;21561;55.654;37.592;2023-06-10T07:47:16;99852.94;;;14.53;46.05
35443;BME280;21561;55.654;37.592;2023-06-10T07:49:43;99877.59;;;14.38;46.15
35443;BME280;21561;55.654;37.592;2023-06-10T07:52:10;99894.06;;;13.92;46.25
35443;BME280;21561;55.654;37.592;2023-06-10T07:54:37;99933.53;;;13.72;47.41
35443;BME280;21561;55.654;37.592;2023-06-10T07:57:04;99967.47;;;13.67;47.59
35443;BME280;21561;55.654;37.592;2023-06-10T07:59:31;99969.94;;;13.78;47.50
35443;BME280;21561;55.654;37.592;2023-06-10T08:01:58;99918.47;;;13.89;46.31
35443;BME280;21561;55.654;37.592;2023-06-10T08:04:24;99926.16;;;13.97;46.74
35443;BME280;21561;55.654;37.592;2023-06-10T08:06:51;99953.00;;;14.05;47.16
35443;BME280;21561;55.654;37.592;2023-06-10T08:09:18;99930.19;;;14.17;46.56
35443;BME280;21561;55.654;37.592;2023-06-10T08:11:48;99909.72;;;14.42;45.99
35443;BME280;21561;55.654;37.592;2023-06-10T08:14:16;99908.97;;;14.82;45.78
35443;BME280;21561;55.654;37.592;2023-06-10T08:16:43;99795.28;;;15.04;43.20
35443;BME280;21561;55.654;37.592;2023-06-10T08:19:10;99755.63;;;15.23;42.13
35443;BME280;21561;55.654;37.592;2023-06-10T08:21:37;99738.81;;;15.33;42.56
35443;BME280;21561;55.654;37.592;2023-06-10T08:24:07;99747.19;;;15.48;42.63
35443;BME280;21561;55.654;37.592;2023-06-10T08:26:34;99769.13;;;15.76;42.64
35443;BME280;21561;55.654;37.592;2023-06-10T08:29:01;99727.56;;;15.97;41.42
35443;BME280;21561;55.654;37.592;2023-06-10T08:31:27;99701.50;;;15.94;41.40
35443;BME280;21561;55.654;37.592;2023-06-10T08:33:54;99662.13;;;15.65;41.22
35443;BME280;21561;55.654;37.592;2023-06-10T08:36:21;99693.16;;;15.46;40.92
35443;BME280;21561;55.654;37.592;2023-06-10T08:38:48;99710.84;;;15.37;40.90
35443;BME280;21561;55.654;37.592;2023-06-10T08:41:17;99720.97;;;15.51;40.57
35443;BME280;21561;55.654;37.592;2023-06-10T08:44:06;99737.75;;;15.76;41.35
35443;BME280;21561;55.654;37.592;2023-06-10T08:46:35;99739.78;;;15.98;40.85
35443;BME280;21561;55.654;37.592;2023-06-10T08:49:05;99647.53;;;16.19;38.25
35443;BME280;21561;55.654;37.592;2023-06-10T08:51:35;99659.25;;;16.36;40.44
35443;BME280;21561;55.654;37.592;2023-06-10T08:54:12;99560.13;;;16.23;37.30
35443;BME280;21561;55.654;37.592;2023-06-10T08:56:42;99532.81;;;16.04;36.82
35443;BME280;21561;55.654;37.592;2023-06-10T08:59:10;99541.22;;;16.15;36.81
35443;BME280;21561;55.654;37.592;2023-06-10T09:01:38;99541.22;;;16.42;37.26
35443;BME280;21561;55.654;37.592;2023-06-10T09:04:05;99518.22;;;16.77;36.51
35443;BME280;21561;55.654;37.592;2023-06-10T09:06:33;99436.53;;;16.91;35.20
35443;BME280;21561;55.654;37.592;2023-06-10T09:09:00;99385.56;;;16.74;34.88
35443;BME280;21561;55.654;37.592;2023-06-10T09:11:29;99334.13;;;16.48;33.86
35443;BME280;21561;55.654;37.592;2023-06-10T09:13:56;99346.16;;;16.29;34.87
35443;BME280;21561;55.654;37.592;2023-06-10T09:16:24;99362.09;;;16.22;34.86
35443;BME280;21561;55.654;37.592;2023-06-10T09:18:52;99399.53;;;16.25;35.32
35443;BME280;21561;55.654;37.592;2023-06-10T09:21:22;99401.03;;;16.32;34.48
35443;BME280;21561;55.654;37.592;2023-06-10T09:23:50;99407.56;;;16.45;35.27
35443;BME280;21561;55.654;37.592;2023-06-10T09:26:18;99375.38;;;16.41;35.25
35443;BME280;21561;55.654;37.592;2023-06-10T09:28:47;99412.22;;;16.37;35.32
35443;BME280;21561;55.654;37.592;2023-06-10T09:31:15;99403.78;;;16.02;35.64
35443;BME280;21561;55.654;37.592;2023-06-10T09:33:45;99442.41;;;15.37;36.36
35443;BME280;21561;55.654;37.592;2023-06-10T09:36:21;99494.16;;;15.26;37.10
35443;BME280;21561;55.654;37.592;2023-06-10T09:38:50;99542.44;;;15.13;37.61
35443;BME280;21561;55.654;37.592;2023-06-10T09:41:17;99557.47;;;15.04;37.29
35443;BME280;21561;55.654;37.592;2023-06-10T09:43:45;99561.22;;;15.27;37.01
35443;BME280;21561;55.654;37.592;2023-06-10T09:46:17;99502.88;;;16.13;35.26
35443;BME280;21561;55.654;37.592;2023-06-10T09:48:48;99396.22;;;17.17;33.15
35443;BME280;21561;55.654;37.592;2023-06-10T09:51:15;99241.34;;;17.85;31.08
35443;BME280;21561;55.654;37.592;2023-06-10T09:53:48;99198.16;;;18.31;31.29
35443;BME280;21561;55.654;37.592;2023-06-10T09:56:16;99069.38;;;18.52;29.91
35443;BME280;21561;55.654;37.592;2023-06-10T09:58:44;99114.81;;;19.59;30.35
35443;BME280;21561;55.654;37.592;2023-06-10T10:01:13;98978.78;;;19.93;28.13
35443;BME280;21561;55.654;37.592;2023-06-10T10:03:48;98986.34;;;20.75;28.03
35443;BME280;21561;55.654;37.592;2023-06-10T10:06:17;98972.50;;;22.00;27.08
35443;BME280;21561;55.654;37.592;2023-06-10T10:08:49;98910.69;;;22.29;26.21
35443;BME280;21561;55.654;37.592;2023-06-10T10:11:18;98876.34;;;21.62;26.62
35443;BME280;21561;55.654;37.592;2023-06-10T10:13:48;98926.06;;;19.78;28.71
35443;BME280;21561;55.654;37.592;2023-06-10T10:16:19;99040.19;;;18.93;30.12
35443;BME280;21561;55.654;37.592;2023-06-10T10:18:56;99132.81;;;19.67;30.33
35443;BME280;21561;55.654;37.592;2023-06-10T10:21:27;99102.63;;;19.40;29.35
35443;BME280;21561;55.654;37.592;2023-06-10T10:24:05;99099.81;;;19.94;28.70
35443;BME280;21561;55.654;37.592;2023-06-10T10:26:35;99033.91;;;20.88;27.72
35443;BME280;21561;55.654;37.592;2023-06-10T10:29:16;98936.22;;;21.33;27.02
35443;BME280;21561;55.654;37.592;2023-06-10T10:31:46;98960.19;;;22.13;26.32
35443;BME280;21561;55.654;37.592;2023-06-10T10:34:21;98893.00;;;23.33;25.04
35443;BME280;21561;55.654;37.592;2023-06-10T10:36:50;98834.63;;;24.76;24.14
35443;BME280;21561;55.654;37.592;2023-06-10T10:39:18;98722.44;;;25.61;22.61
35443;BME280;21561;55.654;37.592;2023-06-10T10:41:46;98616.28;;;25.81;21.02
35443;BME280;21561;55.654;37.592;2023-06-10T10:44:17;98554.59;;;25.46;21.05
35443;BME280;21561;55.654;37.592;2023-06-10T10:46:50;98510.56;;;25.23;21.53
35443;BME280;21561;55.654;37.592;2023-06-10T10:49:20;98553.88;;;24.81;21.55
35443;BME280;21561;55.654;37.592;2023-06-10T10:51:59;98535.28;;;25.34;21.25
35443;BME280;21561;55.654;37.592;2023-06-10T10:54:34;98521.91;;;24.18;22.36
35443;BME280;21561;55.654;37.592;2023-06-10T10:59:52;98770.25;;;20.74;26.23
35443;BME280;21561;55.654;37.592;2023-06-10T11:02:43;98895.66;;;19.89;27.50
35443;BME280;21561;55.654;37.592;2023-06-10T11:05:12;98985.47;;;19.17;28.85
35443;BME280;21561;55.654;37.592;2023-06-10T11:07:52;99032.81;;;19.17;28.28
35443;BME280;21561;55.654;37.592;2023-06-10T11:10:29;99059.44;;;18.94;28.56
35443;BME280;21561;55.654;37.592;2023-06-10T11:12:57;99067.91;;;18.64;28.54
35443;BME280;21561;55.654;37.592;2023-06-10T11:15:26;99086.78;;;19.24;28.14
35443;BME280;21561;55.654;37.592;2023-06-10T11:18:14;99046.84;;;21.07;26.56
35443;BME280;21561;55.654;37.592;2023-06-10T11:21:04;98929.50;;;21.98;24.96
35443;BME280;21561;55.654;37.592;2023-06-10T11:26:29;98940.78;;;19.97;26.44
35443;BME280;21561;55.654;37.592;2023-06-10T11:29:04;99001.44;;;18.27;28.18
35443;BME280;21561;55.654;37.592;2023-06-10T11:31:33;99115.31;;;17.47;30.35
35443;BME280;21561;55.654;37.592;2023-06-10T11:34:05;99186.50;;;17.99;29.71
35443;BME280;21561;55.654;37.592;2023-06-10T11:36:36;99138.91;;;18.81;28.23
35443;BME280;21561;55.654;37.592;2023-06-10T11:39:09;99125.03;;;19.98;27.53
35443;BME280;21561;55.654;37.592;2023-06-10T11:41:37;99058.94;;;20.81;25.84
35443;BME280;21561;55.654;37.592;2023-06-10T11:44:10;98957.34;;;21.19;24.80
35443;BME280;21561;55.654;37.592;2023-06-10T11:46:37;98941.59;;;21.60;25.18
35443;BME280;21561;55.654;37.592;2023-06-10T11:49:05;98889.13;;;21.96;23.23
35443;BME280;21561;55.654;37.592;2023-06-10T11:51:36;98803.81;;;22.46;22.68
35443;BME280;21561;55.654;37.592;2023-06-10T11:54:04;98734.06;;;22.73;21.86
35443;BME280;21561;55.654;37.592;2023-06-10T11:56:32;98707.78;;;23.20;21.41
35443;BME280;21561;55.654;37.592;2023-06-10T11:59:00;98664.00;;;23.74;21.29
35443;BME280;21561;55.654;37.592;2023-06-10T12:01:32;98649.31;;;24.49;21.01
35443;BME280;21561;55.654;37.592;2023-06-10T12:04:10;98581.03;;;23.28;21.24
35443;BME280;21561;55.654;37.592;2023-06-10T12:06:49;98684.16;;;21.54;24.17
35443;BME280;21561;55.654;37.592;2023-06-10T12:12:04;98916.88;;;18.71;27.37
35443;BME280;21561;55.654;37.592;2023-06-10T12:20:05;99099.41;;;17.91;28.70
35443;BME280;21561;55.654;37.592;2023-06-10T12:22:45;99107.63;;;18.02;28.09
35443;BME280;21561;55.654;37.592;2023-06-10T12:25:12;99093.22;;;18.47;27.54
35443;BME280;21561;55.654;37.592;2023-06-10T12:27:50;99067.34;;;19.78;26.57
35443;BME280;21561;55.654;37.592;2023-06-10T12:30:22;99040.53;;;20.19;25.90
35443;BME280;21561;55.654;37.592;2023-06-10T12:32:51;99022.59;;;20.56;25.49
35443;BME280;21561;55.654;37.592;2023-06-10T12:35:23;99003.09;;;20.89;25.55
35443;BME280;21561;55.654;37.592;2023-06-10T12:38:02;98946.63;;;22.05;23.51
35443;BME280;21561;55.654;37.592;2023-06-10T12:40:39;98856.38;;;23.51;22.33
35443;BME280;21561;55.654;37.592;2023-06-10T12:43:10;98765.59;;;23.37;21.73
35443;BME280;21561;55.654;37.592;2023-06-10T12:45:38;98725.72;;;23.63;21.11
35443;BME280;21561;55.654;37.592;2023-06-10T12:48:19;98654.31;;;24.19;21.08
35443;BME280;21561;55.654;37.592;2023-06-10T12:50:54;98599.47;;;24.31;21.00
35443;BME280;21561;55.654;37.592;2023-06-10T12:53:23;98614.16;;;23.56;21.53
35443;BME280;21561;55.654;37.592;2023-06-10T12:55:50;98629.81;;;23.59;21.88
35443;BME280;21561;55.654;37.592;2023-06-10T12:58:19;98637.66;;;22.90;22.58
35443;BME280;21561;55.654;37.592;2023-06-10T13:00:46;98684.53;;;21.35;24.40
35443;BME280;21561;55.654;37.592;2023-06-10T13:03:15;98787.28;;;20.54;25.50
35443;BME280;21561;55.654;37.592;2023-06-10T13:05:43;98868.19;;;20.23;26.70
35443;BME280;21561;55.654;37.592;2023-06-10T13:08:09;98920.88;;;19.77;26.11
35443;BME280;21561;55.654;37.592;2023-06-10T13:10:36;98948.06;;;19.12;27.36
35443;BME280;21561;55.654;37.592;2023-06-10T13:13:04;99000.66;;;18.42;27.99
35443;BME280;21561;55.654;37.592;2023-06-10T13:15:33;99063.34;;;17.95;29.09